createdAt,value
2019-02-26T00:00:42.383Z,6.51
2019-02-26T00:01:37.474Z,6.51
2019-02-26T00:02:38.276Z,6.52
2019-02-26T00:03:37.471Z,6.52
2019-02-26T00:04:37.373Z,6.56
2019-02-26T00:05:37.517Z,6.46
2019-02-26T00:06:37.369Z,6.54
2019-02-26T00:07:37.354Z,6.44
2019-02-26T00:08:37.258Z,6.41
2019-02-26T00:09:37.411Z,6.49
2019-02-26T00:10:39.134Z,6.45
2019-02-26T00:11:38.407Z,6.48
2019-02-26T00:12:37.284Z,6.44
2019-02-26T00:13:39.225Z,6.45
2019-02-26T00:14:37.250Z,6.51
2019-02-26T00:15:40.491Z,6.42
2019-02-26T00:16:39.740Z,6.48
2019-02-26T00:17:40.456Z,6.51
2019-02-26T00:18:37.175Z,6.49
2019-02-26T00:19:37.138Z,6.42
2019-02-26T00:20:39.092Z,6.52
2019-02-26T00:21:37.693Z,6.52
2019-02-26T00:22:38.888Z,6.44
2019-02-26T00:23:37.690Z,6.51
2019-02-26T00:24:37.702Z,6.60
2019-02-26T00:25:37.182Z,6.52
2019-02-26T00:26:38.454Z,6.57
2019-02-26T00:27:37.012Z,6.64
2019-02-26T00:28:39.100Z,6.57
2019-02-26T00:29:37.035Z,6.63
2019-02-26T00:30:37.933Z,6.63
2019-02-26T00:31:38.706Z,6.64
2019-02-26T00:32:38.346Z,6.64
2019-02-26T00:33:36.896Z,6.72
2019-02-26T00:34:38.588Z,6.69
2019-02-26T00:35:36.947Z,6.79
2019-02-26T00:36:38.170Z,6.72
2019-02-26T00:37:36.869Z,6.70
2019-02-26T00:38:37.768Z,6.79
2019-02-26T00:39:36.851Z,6.77
2019-02-26T00:40:38.777Z,6.74
2019-02-26T00:41:36.862Z,6.79
2019-02-26T00:42:36.740Z,6.84
2019-02-26T00:43:37.014Z,6.87
2019-02-26T00:44:37.298Z,6.87
2019-02-26T00:45:44.378Z,6.95
2019-02-26T00:47:33.891Z,6.85
2019-02-26T00:48:31.521Z,6.82
2019-02-26T00:49:34.807Z,6.85
2019-02-26T00:50:31.014Z,6.81
2019-02-26T00:51:30.121Z,6.88
2019-02-26T00:52:30.502Z,6.85
2019-02-26T00:53:30.742Z,6.95
2019-02-26T00:54:31.931Z,6.89
2019-02-26T00:55:32.170Z,6.89
2019-02-26T00:56:36.365Z,6.96
2019-02-26T00:57:31.718Z,6.95
2019-02-26T00:58:32.072Z,6.96
2019-02-26T00:59:30.101Z,6.95
2019-02-26T01:00:30.877Z,7.02
2019-02-26T01:01:34.737Z,7.05
2019-02-26T01:02:29.924Z,7.14
2019-02-26T01:03:29.895Z,7.20
2019-02-26T01:04:31.681Z,7.18
2019-02-26T01:05:29.753Z,7.15
2019-02-26T01:06:33.420Z,7.23
2019-02-26T01:07:32.588Z,7.17
2019-02-26T01:08:29.921Z,7.20
2019-02-26T01:09:31.735Z,7.21
2019-02-26T01:10:29.699Z,7.06
2019-02-26T01:11:30.273Z,7.20
2019-02-26T01:12:30.978Z,7.18
2019-02-26T01:13:30.155Z,7.21
2019-02-26T01:14:29.666Z,7.24
2019-02-26T01:15:29.756Z,7.33
2019-02-26T01:16:31.386Z,7.21
2019-02-26T01:17:31.098Z,7.23
2019-02-26T01:18:29.621Z,7.31
2019-02-26T01:19:29.789Z,7.32
2019-02-26T01:20:31.502Z,7.33
2019-02-26T01:21:31.135Z,7.23
2019-02-26T01:22:31.083Z,7.29
2019-02-26T01:23:32.054Z,7.21
2019-02-26T01:24:31.025Z,7.21
2019-02-26T01:25:29.638Z,7.38
2019-02-26T01:26:31.134Z,7.32
2019-02-26T01:27:29.495Z,7.35
2019-02-26T01:28:29.646Z,7.24
2019-02-26T01:29:29.944Z,7.23
2019-02-26T01:30:35.662Z,7.24
2019-02-26T01:31:31.314Z,7.23
2019-02-26T01:32:29.470Z,7.23
2019-02-26T01:33:30.304Z,7.28
2019-02-26T01:34:29.467Z,7.33
2019-02-26T01:35:30.778Z,7.38
2019-02-26T01:36:30.173Z,7.28
2019-02-26T01:37:29.953Z,7.23
2019-02-26T01:38:29.349Z,7.20
2019-02-26T01:39:29.294Z,7.18
2019-02-26T01:40:29.309Z,7.23
2019-02-26T01:41:29.374Z,7.18
2019-02-26T01:42:31.212Z,7.28
2019-02-26T01:43:30.672Z,7.25
2019-02-26T01:44:32.326Z,7.18
2019-02-26T01:45:32.376Z,7.28
2019-02-26T01:46:30.085Z,7.28
2019-02-26T01:47:29.167Z,7.25
2019-02-26T01:48:29.997Z,7.24
2019-02-26T01:49:31.073Z,7.20
2019-02-26T01:50:30.878Z,7.20
2019-02-26T01:51:29.091Z,7.17
2019-02-26T01:52:29.172Z,7.23
2019-02-26T01:53:29.000Z,7.28
2019-02-26T01:54:30.498Z,7.23
2019-02-26T01:55:29.141Z,7.31
2019-02-26T01:56:30.803Z,7.25
2019-02-26T01:57:28.983Z,7.24
2019-02-26T01:59:33.578Z,7.24
2019-02-26T02:00:29.208Z,7.24
2019-02-26T02:01:29.649Z,7.28
2019-02-26T02:02:30.279Z,7.23
2019-02-26T02:03:30.221Z,7.29
2019-02-26T02:04:34.204Z,7.31
2019-02-26T02:05:30.893Z,7.23
2019-02-26T02:06:30.333Z,7.18
2019-02-26T02:07:30.593Z,7.02
2019-02-26T02:08:31.767Z,7.15
2019-02-26T02:09:28.881Z,7.17
2019-02-26T02:10:28.702Z,7.15
2019-02-26T02:11:31.001Z,7.21
2019-02-26T02:12:30.124Z,7.23
2019-02-26T02:13:30.649Z,7.23
2019-02-26T02:14:33.342Z,7.25
2019-02-26T02:15:28.713Z,7.38
2019-02-26T02:16:29.593Z,7.29
2019-02-26T02:17:30.926Z,7.17
2019-02-26T02:18:29.877Z,7.24
2019-02-26T02:19:30.144Z,7.28
2019-02-26T02:20:29.341Z,7.21
2019-02-26T02:21:30.953Z,7.28
2019-02-26T02:22:29.604Z,7.28
2019-02-26T02:23:30.252Z,7.28
2019-02-26T02:24:28.616Z,7.17
2019-02-26T02:25:31.063Z,7.21
2019-02-26T02:26:29.307Z,7.31
2019-02-26T02:27:31.052Z,7.23
2019-02-26T02:28:29.227Z,7.17
2019-02-26T02:29:28.630Z,7.28
2019-02-26T02:30:31.406Z,7.25
2019-02-26T02:31:43.343Z,7.24
2019-02-26T02:32:39.537Z,7.23
2019-02-26T02:33:30.004Z,7.28
2019-02-26T02:34:30.171Z,7.24
2019-02-26T02:35:31.166Z,7.24
2019-02-26T02:36:28.470Z,7.33
2019-02-26T02:37:30.006Z,7.29
2019-02-26T02:38:28.297Z,7.28
2019-02-26T02:39:29.322Z,7.24
2019-02-26T02:40:28.184Z,7.24
2019-02-26T02:41:33.569Z,7.35
2019-02-26T02:42:28.246Z,7.29
2019-02-26T02:43:28.843Z,7.25
2019-02-26T02:44:28.920Z,7.35
2019-02-26T02:45:32.733Z,7.32
2019-02-26T02:47:30.719Z,7.31
2019-02-26T02:48:28.298Z,7.35
2019-02-26T02:49:36.268Z,7.25
2019-02-26T02:50:28.101Z,7.31
2019-02-26T02:51:30.685Z,7.28
2019-02-26T02:52:30.412Z,7.32
2019-02-26T02:53:29.806Z,7.29
2019-02-26T02:54:30.865Z,7.32
2019-02-26T02:55:28.002Z,7.36
2019-02-26T02:56:33.400Z,7.35
2019-02-26T02:57:30.010Z,7.32
2019-02-26T02:58:28.649Z,7.36
2019-02-26T02:59:34.068Z,7.36
2019-02-26T03:00:32.263Z,7.23
2019-02-26T03:01:30.818Z,7.39
2019-02-26T03:02:28.678Z,7.25
2019-02-26T03:03:27.983Z,7.35
2019-02-26T03:04:29.068Z,7.36
2019-02-26T03:05:31.357Z,7.25
2019-02-26T03:06:30.173Z,7.32
2019-02-26T03:07:38.898Z,7.35
2019-02-26T03:08:27.833Z,7.33
2019-02-26T03:09:27.915Z,7.33
2019-02-26T03:10:30.834Z,7.33
2019-02-26T03:12:27.751Z,7.35
2019-02-26T03:13:28.060Z,7.45
2019-02-26T03:14:29.989Z,7.45
2019-02-26T03:15:33.150Z,7.33
2019-02-26T03:16:32.359Z,7.45
2019-02-26T03:17:27.646Z,7.36
2019-02-26T03:18:34.107Z,7.45
2019-02-26T03:19:29.628Z,7.48
2019-02-26T03:20:28.651Z,7.48
2019-02-26T03:21:30.627Z,7.43
2019-02-26T03:22:28.327Z,7.50
2019-02-26T03:23:27.442Z,7.40
2019-02-26T03:24:30.636Z,7.45
2019-02-26T03:25:29.123Z,7.48
2019-02-26T03:27:28.383Z,7.32
2019-02-26T03:28:44.426Z,7.35
2019-02-26T03:29:27.471Z,7.35
2019-02-26T03:30:32.801Z,7.38
2019-02-26T03:31:33.881Z,7.39
2019-02-26T03:32:27.424Z,7.42
2019-02-26T03:33:27.294Z,7.36
2019-02-26T03:34:27.235Z,7.39
2019-02-26T03:35:27.515Z,7.40
2019-02-26T03:36:45.077Z,7.39
2019-02-26T03:37:28.794Z,7.47
2019-02-26T03:38:28.875Z,7.43
2019-02-26T03:39:27.493Z,7.48
2019-02-26T03:40:29.971Z,7.40
2019-02-26T03:41:31.248Z,7.43
2019-02-26T03:42:27.212Z,7.47
2019-02-26T03:43:28.816Z,7.43
2019-02-26T03:44:30.241Z,7.45
2019-02-26T03:45:27.405Z,7.48
2019-02-26T03:46:27.350Z,7.50
2019-02-26T03:47:27.263Z,7.36
2019-02-26T03:48:38.273Z,7.42
2019-02-26T03:49:31.822Z,7.39
2019-02-26T03:50:28.400Z,7.40
2019-02-26T03:51:28.654Z,7.42
2019-02-26T03:52:48.235Z,7.47
2019-02-26T03:53:30.413Z,7.36
2019-02-26T03:54:27.075Z,7.38
2019-02-26T03:55:31.733Z,7.47
2019-02-26T03:56:27.079Z,7.43
2019-02-26T03:57:27.236Z,7.53
2019-02-26T03:58:41.856Z,7.43
2019-02-26T03:59:29.726Z,7.48
2019-02-26T04:00:27.060Z,7.50
2019-02-26T04:01:26.912Z,7.45
2019-02-26T04:02:43.305Z,7.45
2019-02-26T04:03:26.988Z,7.45
2019-02-26T04:04:30.472Z,7.47
2019-02-26T04:05:27.869Z,7.58
2019-02-26T04:06:26.841Z,7.53
2019-02-26T04:07:28.352Z,7.53
2019-02-26T04:08:27.773Z,7.45
2019-02-26T04:09:26.949Z,7.45
2019-02-26T04:13:05.312Z,7.42
2019-02-26T04:14:00.454Z,7.43
2019-02-26T04:15:00.790Z,7.50
2019-02-26T04:17:03.018Z,7.47
2019-02-26T04:18:00.310Z,7.51
2019-02-26T04:19:00.203Z,7.47
2019-02-26T04:20:02.689Z,7.40
2019-02-26T04:21:03.693Z,7.48
2019-02-26T04:22:00.288Z,7.45
2019-02-26T04:23:00.141Z,7.42
2019-02-26T04:24:01.061Z,7.42
2019-02-26T04:25:04.569Z,7.47
2019-02-26T04:26:01.757Z,7.42
2019-02-26T04:27:00.208Z,7.45
2019-02-26T04:28:02.626Z,7.42
2019-02-26T04:29:02.793Z,7.47
2019-02-26T04:29:59.959Z,7.43
2019-02-26T04:31:02.473Z,7.42
2019-02-26T04:31:59.977Z,7.48
2019-02-26T04:33:06.567Z,7.43
2019-02-26T04:34:04.939Z,7.51
2019-02-26T04:35:02.462Z,7.43
2019-02-26T04:36:00.102Z,7.48
2019-02-26T04:37:01.570Z,7.48
2019-02-26T04:38:01.076Z,7.43
2019-02-26T04:39:00.831Z,7.51
2019-02-26T04:40:01.598Z,7.53
2019-02-26T04:41:00.448Z,7.42
2019-02-26T04:41:59.929Z,7.50
2019-02-26T04:43:01.854Z,7.51
2019-02-26T04:44:01.285Z,7.48
2019-02-26T04:45:04.919Z,7.56
2019-02-26T04:46:04.643Z,7.42
2019-02-26T04:47:00.383Z,7.57
2019-02-26T04:48:06.508Z,7.51
2019-02-26T04:49:02.233Z,7.43
2019-02-26T04:50:00.677Z,7.43
2019-02-26T04:51:00.483Z,7.42
2019-02-26T04:52:02.051Z,7.43
2019-02-26T04:53:02.039Z,7.50
2019-02-26T04:54:02.012Z,7.48
2019-02-26T04:55:01.384Z,7.47
2019-02-26T04:56:00.456Z,7.47
2019-02-26T04:56:59.585Z,7.51
2019-02-26T04:57:59.480Z,7.47
2019-02-26T04:58:59.541Z,7.48
2019-02-26T05:00:01.312Z,7.48
2019-02-26T05:01:00.315Z,7.47
2019-02-26T05:01:59.388Z,7.47
2019-02-26T05:02:59.590Z,7.47
2019-02-26T05:03:59.446Z,7.45
2019-02-26T05:04:59.501Z,7.48
2019-02-26T05:06:00.186Z,7.51
2019-02-26T05:06:59.412Z,7.42
2019-02-26T05:08:07.672Z,7.54
2019-02-26T05:09:02.886Z,7.42
2019-02-26T05:10:01.858Z,7.53
2019-02-26T05:11:00.021Z,7.54
2019-02-26T05:12:00.444Z,7.54
2019-02-26T05:13:09.914Z,7.53
2019-02-26T05:13:59.400Z,7.48
2019-02-26T05:14:59.305Z,7.54
2019-02-26T05:15:59.676Z,7.53
2019-02-26T05:16:59.313Z,7.50
2019-02-26T05:17:59.936Z,7.53
2019-02-26T05:19:00.845Z,7.56
2019-02-26T05:19:59.930Z,7.57
2019-02-26T05:21:05.265Z,7.58
2019-02-26T05:22:01.398Z,7.50
2019-02-26T05:23:01.031Z,7.57
2019-02-26T05:24:00.160Z,7.57
2019-02-26T05:24:59.843Z,7.53
2019-02-26T05:26:02.949Z,7.51
2019-02-26T05:26:59.046Z,7.54
2019-02-26T05:27:59.469Z,7.56
2019-02-26T05:30:40.362Z,7.43
2019-02-26T05:31:40.229Z,7.48
2019-02-26T05:32:39.602Z,7.53
2019-02-26T05:33:39.123Z,7.50
2019-02-26T05:34:39.845Z,7.56
2019-02-26T05:35:43.039Z,7.56
2019-02-26T05:36:40.300Z,7.54
2019-02-26T05:37:40.986Z,7.53
2019-02-26T05:38:39.294Z,7.56
2019-02-26T05:39:40.678Z,7.58
2019-02-26T05:40:42.250Z,7.54
2019-02-26T05:41:40.524Z,7.58
2019-02-26T05:42:39.742Z,7.57
2019-02-26T05:43:40.727Z,7.63
2019-02-26T05:44:39.093Z,7.58
2019-02-26T05:45:39.029Z,7.67
2019-02-26T05:46:39.705Z,7.66
2019-02-26T05:47:38.910Z,7.51
2019-02-26T05:48:40.075Z,7.66
2019-02-26T05:49:40.792Z,7.56
2019-02-26T05:50:41.307Z,7.61
2019-02-26T05:51:38.834Z,7.61
2019-02-26T05:52:39.786Z,7.69
2019-02-26T05:53:38.893Z,7.67
2019-02-26T05:54:57.846Z,7.72
2019-02-26T05:56:34.058Z,7.67
2019-02-26T05:57:32.765Z,7.70
2019-02-26T05:58:36.043Z,7.67
2019-02-26T05:59:33.750Z,7.63
2019-02-26T06:00:33.393Z,7.72
2019-02-26T06:01:32.098Z,7.75
2019-02-26T06:02:31.963Z,7.70
2019-02-26T06:03:32.146Z,7.72
2019-02-26T06:04:35.057Z,7.76
2019-02-26T06:05:34.668Z,7.67
2019-02-26T06:06:32.178Z,7.82
2019-02-26T06:07:35.559Z,7.80
2019-02-26T06:08:39.228Z,7.82
2019-02-26T06:09:33.859Z,7.80
2019-02-26T06:10:32.605Z,7.77
2019-02-26T06:11:35.680Z,7.76
2019-02-26T06:12:32.607Z,7.83
2019-02-26T06:13:38.254Z,7.75
2019-02-26T06:14:33.123Z,7.80
2019-02-26T06:15:34.064Z,7.82
2019-02-26T06:16:31.827Z,7.77
2019-02-26T06:17:31.866Z,7.85
2019-02-26T06:18:31.764Z,7.80
2019-02-26T06:19:34.291Z,7.83
2019-02-26T06:20:33.985Z,7.87
2019-02-26T06:21:31.696Z,7.90
2019-02-26T06:22:34.553Z,7.83
2019-02-26T06:23:36.737Z,7.93
2019-02-26T06:24:33.173Z,7.90
2019-02-26T06:25:31.551Z,7.93
2019-02-26T06:26:33.374Z,7.97
2019-02-26T06:27:31.955Z,7.97
2019-02-26T06:28:35.503Z,8.08
2019-02-26T06:29:35.086Z,8.00
2019-02-26T06:30:32.259Z,8.12
2019-02-26T06:31:31.471Z,8.13
2019-02-26T06:32:34.269Z,8.12
2019-02-26T06:33:34.087Z,8.16
2019-02-26T06:34:36.309Z,8.15
2019-02-26T06:35:33.768Z,8.18
2019-02-26T06:36:53.461Z,8.18
2019-02-26T06:37:33.846Z,8.15
2019-02-26T06:38:32.780Z,8.15
2019-02-26T06:39:33.981Z,8.19
2019-02-26T06:40:34.524Z,8.24
2019-02-26T06:41:34.215Z,8.20
2019-02-26T06:42:33.219Z,8.24
2019-02-26T06:43:45.646Z,8.23
2019-02-26T06:45:33.307Z,8.28
2019-02-26T06:46:31.929Z,8.34
2019-02-26T06:47:33.201Z,8.37
2019-02-26T06:48:32.333Z,8.38
2019-02-26T06:49:31.410Z,8.46
2019-02-26T06:50:31.830Z,8.45
2019-02-26T06:51:31.547Z,8.44
2019-02-26T06:52:35.088Z,8.48
2019-02-26T06:53:31.362Z,8.51
2019-02-26T06:54:31.803Z,8.56
2019-02-26T06:55:31.694Z,8.53
2019-02-26T06:56:34.476Z,8.60
2019-02-26T06:57:38.830Z,8.64
2019-02-26T06:58:40.430Z,8.69
2019-02-26T06:59:34.471Z,8.74
2019-02-26T07:00:32.279Z,8.71
2019-02-26T07:01:32.756Z,8.88
2019-02-26T07:02:31.825Z,8.88
2019-02-26T07:03:31.061Z,8.94
2019-02-26T07:04:31.787Z,8.85
2019-02-26T07:05:31.780Z,8.99
2019-02-26T07:07:31.128Z,9.04
2019-02-26T07:08:31.169Z,9.13
2019-02-26T07:09:32.423Z,9.18
2019-02-26T07:10:33.650Z,9.21
2019-02-26T07:11:33.145Z,9.26
2019-02-26T07:12:33.462Z,9.26
2019-02-26T07:13:33.761Z,9.32
2019-02-26T07:15:33.474Z,9.47
2019-02-26T07:16:32.916Z,9.44
2019-02-26T07:17:33.787Z,9.46
2019-02-26T07:18:33.790Z,9.47
2019-02-26T07:19:36.330Z,9.55
2019-02-26T07:21:33.807Z,9.55
2019-02-26T07:22:34.403Z,9.66
2019-02-26T07:24:30.815Z,9.62
2019-02-26T07:25:31.791Z,9.55
2019-02-26T07:26:30.867Z,9.59
2019-02-26T07:27:32.009Z,9.65
2019-02-26T07:28:31.343Z,9.59
2019-02-26T07:29:32.833Z,9.50
2019-02-26T07:30:35.334Z,9.50
2019-02-26T07:31:47.320Z,9.47
2019-02-26T07:32:32.317Z,9.55
2019-02-26T07:33:34.641Z,9.46
2019-02-26T07:34:30.602Z,9.44
2019-02-26T07:36:30.925Z,9.41
2019-02-26T07:37:34.038Z,9.48
2019-02-26T07:38:30.813Z,9.56
2019-02-26T07:39:32.926Z,9.56
2019-02-26T07:40:32.915Z,9.64
2019-02-26T07:41:30.693Z,9.64
2019-02-26T07:42:32.764Z,9.64
2019-02-26T07:43:31.351Z,9.65
2019-02-26T07:44:32.310Z,9.59
2019-02-26T07:45:34.234Z,9.69
2019-02-26T07:46:30.603Z,9.74
2019-02-26T07:47:38.443Z,9.84
2019-02-26T07:48:33.665Z,9.84
2019-02-26T07:49:46.392Z,9.87
2019-02-26T07:50:37.356Z,9.98
2019-02-26T07:51:31.734Z,10.19
2019-02-26T07:52:31.273Z,10.34
2019-02-26T07:53:44.385Z,10.61
2019-02-26T07:54:33.497Z,10.79
2019-02-26T07:55:32.792Z,10.90
2019-02-26T07:56:44.764Z,11.04
2019-02-26T07:57:30.331Z,10.99
2019-02-26T07:58:35.977Z,11.19
2019-02-26T07:59:32.425Z,11.52
2019-02-26T08:00:30.508Z,11.60
2019-02-26T08:01:30.579Z,11.75
2019-02-26T08:02:32.082Z,12.32
2019-02-26T08:03:30.450Z,13.09
2019-02-26T08:05:32.500Z,16.28
2019-02-26T08:06:31.667Z,16.15
2019-02-26T08:07:32.199Z,16.24
2019-02-26T08:08:42.053Z,16.56
2019-02-26T08:09:32.025Z,17.02
2019-02-26T08:11:53.109Z,16.97
2019-02-26T08:12:32.864Z,17.49
2019-02-26T08:13:40.443Z,17.78
2019-02-26T08:15:35.637Z,17.14
2019-02-26T08:17:55.410Z,16.42
2019-02-26T08:18:31.879Z,16.12
2019-02-26T08:19:30.763Z,15.68
2019-02-26T08:20:33.008Z,15.42
2019-02-26T08:23:01.336Z,14.91
2019-02-26T08:23:54.536Z,14.84
2019-02-26T08:24:55.423Z,14.92
2019-02-26T08:26:52.389Z,16.65
2019-02-26T08:28:52.118Z,17.24
2019-02-26T08:29:54.697Z,17.24
2019-02-26T08:30:52.904Z,17.24
2019-02-26T08:31:54.516Z,17.01
2019-02-26T08:32:54.304Z,16.96
2019-02-26T08:33:52.279Z,17.97
2019-02-26T08:34:52.490Z,19.31
2019-02-26T08:35:55.502Z,19.41
2019-02-26T08:36:53.880Z,19.41
2019-02-26T08:37:53.505Z,19.29
2019-02-26T08:38:56.375Z,18.80
2019-02-26T08:39:52.053Z,18.53
2019-02-26T08:41:14.455Z,18.29
2019-02-26T08:41:52.290Z,17.87
2019-02-26T08:42:54.947Z,17.51
2019-02-26T08:44:15.280Z,17.04
2019-02-26T08:44:58.122Z,16.72
2019-02-26T08:45:52.059Z,16.56
2019-02-26T08:46:58.763Z,16.60
2019-02-26T08:48:22.266Z,16.38
2019-02-26T08:48:55.880Z,16.13
2019-02-26T08:49:51.666Z,15.98
2019-02-26T08:51:09.039Z,15.65
2019-02-26T08:51:55.631Z,15.39
2019-02-26T08:53:12.762Z,15.19
2019-02-26T08:53:54.684Z,14.88
2019-02-26T08:54:53.414Z,14.60
2019-02-26T08:55:53.609Z,14.58
2019-02-26T08:56:58.850Z,14.62
2019-02-26T08:57:56.415Z,14.60
2019-02-26T08:58:51.717Z,14.43
2019-02-26T08:59:52.272Z,14.35
2019-02-26T09:00:51.583Z,14.18
2019-02-26T09:01:52.623Z,14.14
2019-02-26T09:03:01.373Z,14.00
2019-02-26T09:03:55.814Z,13.85
2019-02-26T09:04:51.593Z,13.77
2019-02-26T09:05:53.943Z,13.68
2019-02-26T09:06:54.683Z,13.60
2019-02-26T09:07:51.614Z,13.33
2019-02-26T09:08:52.337Z,13.11
2019-02-26T09:10:03.477Z,13.09
2019-02-26T09:11:08.643Z,12.93
2019-02-26T09:12:15.123Z,12.85
2019-02-26T09:12:52.380Z,12.67
2019-02-26T09:13:56.341Z,12.57
2019-02-26T09:15:06.194Z,12.54
2019-02-26T09:15:51.654Z,12.40
2019-02-26T09:16:52.564Z,12.32
2019-02-26T09:17:52.253Z,12.25
2019-02-26T09:18:51.715Z,12.13
2019-02-26T09:19:56.051Z,12.12
2019-02-26T09:20:52.514Z,11.95
2019-02-26T09:21:52.477Z,12.03
2019-02-26T09:22:54.590Z,12.02
2019-02-26T09:23:54.931Z,11.97
2019-02-26T09:24:54.460Z,11.88
2019-02-26T09:25:54.073Z,11.72
2019-02-26T09:26:54.929Z,11.77
2019-02-26T09:27:51.406Z,11.62
2019-02-26T09:28:54.836Z,11.54
2019-02-26T09:29:51.630Z,11.54
2019-02-26T09:31:58.907Z,11.43
2019-02-26T09:32:52.513Z,11.43
2019-02-26T09:33:54.086Z,11.37
2019-02-26T09:34:54.262Z,11.32
2019-02-26T09:35:52.589Z,11.41
2019-02-26T09:36:55.548Z,11.41
2019-02-26T09:38:03.866Z,11.35
2019-02-26T09:38:54.025Z,11.44
2019-02-26T09:39:53.865Z,11.48
2019-02-26T09:40:52.429Z,11.45
2019-02-26T09:42:13.211Z,11.45
2019-02-26T09:42:54.386Z,11.50
2019-02-26T09:43:53.568Z,11.47
2019-02-26T09:44:53.053Z,11.52
2019-02-26T09:45:52.945Z,11.43
2019-02-26T09:46:50.999Z,11.25
2019-02-26T09:47:52.693Z,11.22
2019-02-26T09:48:51.499Z,11.18
2019-02-26T09:49:51.607Z,11.26
2019-02-26T09:50:50.964Z,11.18
2019-02-26T09:51:51.551Z,11.19
2019-02-26T09:52:52.673Z,11.36
2019-02-26T09:53:59.004Z,11.47
2019-02-26T09:54:52.832Z,11.55
2019-02-26T09:55:51.009Z,11.48
2019-02-26T09:56:51.154Z,11.57
2019-02-26T09:57:50.947Z,11.63
2019-02-26T09:59:58.147Z,11.75
2019-02-26T10:00:58.312Z,11.77
2019-02-26T10:01:53.757Z,11.77
2019-02-26T10:02:52.692Z,11.78
2019-02-26T10:04:28.456Z,11.81
2019-02-26T10:04:51.886Z,12.02
2019-02-26T10:06:13.618Z,12.07
2019-02-26T10:06:51.815Z,12.00
2019-02-26T10:08:12.835Z,12.00
2019-02-26T10:08:56.094Z,12.12
2019-02-26T10:10:06.468Z,12.12
2019-02-26T10:11:16.093Z,12.13
2019-02-26T10:11:51.764Z,12.13
2019-02-26T10:12:51.786Z,12.18
2019-02-26T10:13:57.587Z,12.13
2019-02-26T10:14:52.332Z,12.13
2019-02-26T10:15:51.847Z,12.17
2019-02-26T10:16:56.878Z,12.21
2019-02-26T10:17:51.387Z,12.25
2019-02-26T10:18:52.385Z,12.37
2019-02-26T10:19:51.036Z,12.39
2019-02-26T10:20:52.270Z,12.31
2019-02-26T10:21:52.076Z,12.20
2019-02-26T10:22:52.498Z,12.13
2019-02-26T10:23:52.169Z,12.10
2019-02-26T10:25:06.842Z,12.07
2019-02-26T10:25:53.344Z,12.00
2019-02-26T10:26:51.196Z,12.00
2019-02-26T10:28:08.818Z,11.95
2019-02-26T10:28:57.266Z,12.00
2019-02-26T10:29:50.487Z,11.97
2019-02-26T10:30:54.417Z,12.04
2019-02-26T10:31:50.792Z,12.10
2019-02-26T10:32:50.503Z,12.21
2019-02-26T10:34:50.370Z,12.61
2019-02-26T10:35:51.141Z,12.80
2019-02-26T10:36:51.870Z,12.90
2019-02-26T10:37:54.227Z,12.97
2019-02-26T10:38:57.603Z,12.83
2019-02-26T10:40:00.315Z,12.93
2019-02-26T10:40:53.927Z,12.97
2019-02-26T10:41:57.339Z,12.97
2019-02-26T10:42:54.274Z,12.97
2019-02-26T10:43:52.190Z,12.98
2019-02-26T10:44:50.337Z,13.11
2019-02-26T10:45:56.207Z,13.12
2019-02-26T10:47:11.332Z,13.19
2019-02-26T10:48:52.403Z,13.16
2019-02-26T10:49:51.885Z,13.15
2019-02-26T10:50:52.157Z,13.19
2019-02-26T10:51:50.486Z,13.22
2019-02-26T10:53:01.448Z,13.12
2019-02-26T10:53:51.149Z,13.13
2019-02-26T10:54:50.127Z,13.19
2019-02-26T10:55:50.656Z,13.05
2019-02-26T10:56:54.069Z,13.08
2019-02-26T10:57:50.161Z,12.97
2019-02-26T10:58:54.747Z,12.91
2019-02-26T10:59:51.817Z,12.91
2019-02-26T11:00:52.587Z,12.83
2019-02-26T11:01:52.322Z,12.90
2019-02-26T11:02:51.000Z,13.03
2019-02-26T11:03:52.837Z,13.04
2019-02-26T11:04:52.712Z,13.16
2019-02-26T11:06:25.631Z,13.13
2019-02-26T11:07:08.457Z,13.22
2019-02-26T11:07:52.548Z,13.15
2019-02-26T11:08:51.165Z,13.09
2019-02-26T11:09:53.020Z,13.13
2019-02-26T11:10:53.656Z,13.04
2019-02-26T11:11:49.847Z,12.95
2019-02-26T11:12:50.517Z,12.93
2019-02-26T11:13:53.773Z,13.09
2019-02-26T11:14:56.108Z,13.08
2019-02-26T11:15:51.645Z,13.13
2019-02-26T11:16:49.837Z,13.20
2019-02-26T11:17:53.611Z,13.20
2019-02-26T11:18:49.755Z,13.20
2019-02-26T11:19:50.035Z,13.31
2019-02-26T11:22:27.423Z,15.21
2019-02-26T11:22:52.059Z,15.43
2019-02-26T11:23:51.701Z,15.18
2019-02-26T11:26:24.971Z,14.99
2019-02-26T11:27:22.886Z,15.86
2019-02-26T11:28:27.309Z,16.08
2019-02-26T11:29:22.724Z,15.79
2019-02-26T11:31:25.479Z,15.51
2019-02-26T11:32:22.726Z,15.67
2019-02-26T11:34:25.484Z,15.27
2019-02-26T11:37:08.515Z,14.88
2019-02-26T11:37:59.035Z,14.84
2019-02-26T11:39:01.238Z,14.72
2019-02-26T11:39:57.700Z,14.59
2019-02-26T11:40:58.876Z,14.45
2019-02-26T11:42:59.901Z,14.30
2019-02-26T11:43:58.886Z,14.25
2019-02-26T11:44:57.561Z,14.28
2019-02-26T11:46:01.483Z,14.28
2019-02-26T11:47:57.994Z,14.48
2019-02-26T11:48:58.917Z,14.78
2019-02-26T11:50:05.216Z,15.36
2019-02-26T11:51:01.519Z,15.92
2019-02-26T11:51:57.291Z,16.69
2019-02-26T11:52:59.367Z,16.78
2019-02-26T11:54:14.395Z,16.93
2019-02-26T11:54:58.720Z,16.94
2019-02-26T11:55:59.877Z,16.94
2019-02-26T11:56:59.852Z,17.30
2019-02-26T11:57:57.326Z,16.99
2019-02-26T11:59:06.555Z,16.79
2019-02-26T12:00:06.805Z,16.71
2019-02-26T12:01:54.226Z,16.50
2019-02-26T12:02:50.637Z,16.28
2019-02-26T12:03:50.887Z,16.09
2019-02-26T12:04:50.964Z,16.36
2019-02-26T12:05:54.209Z,16.24
2019-02-26T12:06:50.500Z,16.00
2019-02-26T12:08:14.164Z,15.95
2019-02-26T12:08:53.247Z,15.94
2019-02-26T12:10:05.951Z,15.95
2019-02-26T12:10:52.271Z,15.92
2019-02-26T12:12:00.917Z,15.97
2019-02-26T12:13:14.673Z,15.92
2019-02-26T12:13:54.160Z,15.79
2019-02-26T12:15:12.360Z,15.58
2019-02-26T12:17:19.752Z,15.33
2019-02-26T12:17:54.146Z,15.06
2019-02-26T12:18:52.138Z,15.02
2019-02-26T12:19:51.515Z,15.06
2019-02-26T12:20:52.246Z,14.91
2019-02-26T12:21:51.866Z,14.92
2019-02-26T12:22:55.201Z,14.68
2019-02-26T12:23:50.368Z,14.45
2019-02-26T12:24:53.013Z,14.28
2019-02-26T12:25:52.566Z,14.22
2019-02-26T12:26:52.502Z,14.18
2019-02-26T12:27:54.092Z,14.07
2019-02-26T12:28:52.379Z,14.00
2019-02-26T12:29:54.379Z,13.92
2019-02-26T12:31:52.761Z,13.79
2019-02-26T12:33:07.275Z,13.79
2019-02-26T12:33:51.469Z,13.72
2019-02-26T12:34:51.473Z,13.62
2019-02-26T12:35:50.569Z,13.57
2019-02-26T12:37:52.755Z,13.54
2019-02-26T12:38:59.184Z,13.63
2019-02-26T12:39:57.730Z,13.65
2019-02-26T12:40:53.407Z,13.71
2019-02-26T12:41:51.347Z,13.68
2019-02-26T12:42:51.085Z,13.60
2019-02-26T12:43:52.958Z,13.71
2019-02-26T12:44:50.289Z,13.62
2019-02-26T12:46:04.516Z,13.63
2019-02-26T12:47:15.441Z,13.56
2019-02-26T12:47:54.926Z,13.42
2019-02-26T12:48:52.105Z,13.38
2019-02-26T12:49:52.580Z,13.37
2019-02-26T12:50:52.228Z,13.35
2019-02-26T12:51:50.561Z,13.19
2019-02-26T12:54:26.876Z,13.19
2019-02-26T12:54:51.450Z,13.04
2019-02-26T12:56:11.766Z,13.12
2019-02-26T12:56:51.550Z,12.98
2019-02-26T12:57:59.494Z,13.03
2019-02-26T12:58:54.718Z,12.90
2019-02-26T12:59:57.031Z,13.09
2019-02-26T13:00:49.957Z,13.09
2019-02-26T13:01:51.951Z,13.11
2019-02-26T13:02:56.582Z,13.04
2019-02-26T13:05:16.841Z,13.04
2019-02-26T13:05:51.626Z,12.95
2019-02-26T13:06:51.997Z,12.79
2019-02-26T13:07:56.744Z,12.76
2019-02-26T13:08:52.525Z,12.64
2019-02-26T13:09:55.960Z,12.55
2019-02-26T13:10:55.321Z,12.49
2019-02-26T13:12:01.263Z,12.31
2019-02-26T13:12:59.007Z,12.28
2019-02-26T13:13:52.346Z,12.22
2019-02-26T13:15:06.457Z,12.18
2019-02-26T13:15:49.799Z,12.13
2019-02-26T13:16:56.486Z,12.00
2019-02-26T13:17:54.213Z,12.02
2019-02-26T13:18:51.560Z,11.91
2019-02-26T13:19:52.734Z,11.81
2019-02-26T13:20:56.855Z,11.90
2019-02-26T13:21:51.768Z,11.75
2019-02-26T13:22:49.652Z,11.75
2019-02-26T13:24:11.439Z,11.75
2019-02-26T13:24:56.034Z,11.73
2019-02-26T13:25:51.096Z,11.72
2019-02-26T13:26:51.006Z,11.80
2019-02-26T13:27:51.208Z,11.77
2019-02-26T13:28:52.699Z,11.77
2019-02-26T13:29:54.496Z,11.81
2019-02-26T13:30:49.663Z,11.70
2019-02-26T13:31:56.210Z,11.75
2019-02-26T13:32:59.729Z,11.77
2019-02-26T13:33:49.731Z,11.73
2019-02-26T13:34:51.476Z,11.83
2019-02-26T13:35:58.219Z,11.68
2019-02-26T13:36:55.932Z,11.55
2019-02-26T13:37:49.270Z,11.48
2019-02-26T13:38:49.730Z,11.51
2019-02-26T13:39:49.450Z,11.33
2019-02-26T13:40:49.966Z,11.18
2019-02-26T13:41:54.344Z,11.14
2019-02-26T13:44:04.289Z,11.05
2019-02-26T13:44:50.279Z,10.93
2019-02-26T13:45:51.268Z,10.94
2019-02-26T13:46:49.217Z,10.94
2019-02-26T13:47:52.393Z,10.93
2019-02-26T13:48:49.317Z,10.82
2019-02-26T13:49:49.223Z,10.87
2019-02-26T13:50:49.284Z,10.81